Mount Pleasant, SC (29466)

2:08 AM EDT on August 31, 2016 (GMT -0400)
Rivertowne | | Change Station
Active Advisory: Coastal Hazard Statement

Elev 13 ft 32.87 °N, 79.82 °W | Updated 8 seconds ago

Overcast
Overcast
74.4 °F
Feels Like 71 °F
N
0.0
Wind Variable Wind from ESE
Gusts 0.0 mph

Today
High -- | Low -- °F
--% Chance of Precip.
Yesterday
High -- | Low -- °F
Precip. -- in
Pressure 29.99 in
Visibility 10.0 miles
Clouds Mostly Cloudy 1600 ft
Mostly Cloudy 2200 ft
Overcast 2700 ft
Heat Index 71 °F
Dew Point 74.0 °F
Humidity 99%
Rainfall 0.00 in
Snow Depth Not available.
6:53 AM 7:44 PM
Waning Crescent, 1% visible
METAR KJZI 310555Z AUTO 00000KT 10SM BKN016 BKN022 OVC027 25/25 A2999 RMK AO2
Pressure 29.99 in
Visibility 10.0 miles
Clouds Mostly Cloudy 1600 ft
Mostly Cloudy 2200 ft
Overcast 2700 ft
Heat Index 71 °F
Dew Point 74.0 °F
Humidity 99%
Rainfall 0.00 in
Snow Depth Not available.
6:53 AM 7:44 PM
Waning Crescent, 1% visible
METAR KJZI 310555Z AUTO 00000KT 10SM BKN016 BKN022 OVC027 25/25 A2999 RMK AO2

10-Day Weather Forecast

Almanac

Astronomy

Aug. 31, 2016 Rise Set
Actual Time
Civil Twilight
Nautical Twilight
Astronomical Twilight
Moon
Length of Visible Light
Length of Day
Tomorrow will be .
, % of the Moon is Illuminated

Today's Extremes

State Highs State Lows

Community

WunderPhotos

Upload Photos

1,936,040 photos uploaded!

WunderBlog® & News

Nearby

Air Quality

  Air Quality AQ Index Pollutant
Not available.

Snow Depth

Station Depth Elevation

Earthquake Activity

City Distance Mag. Time & Date
Minimum magnitude displayed is 2.5.

Coastal Water Temperatures

Place Temperature

Stations

Nearby Weather Stations

Station Location Temp. Windchill Dew Point Humidity Wind Precip. Elev Updated Type
                   

Watches & Warnings

Coastal Hazard Statement
Issued: 8:23 PM EDT Aug. 30, 2016 – National Weather Service

... High rip current risk remains in effect through Wednesday
afternoon...
... Coastal Flood Advisory is cancelled...

The National Weather Service in Charleston has cancelled the
coastal Flood Advisory.

* Rip currents... wind and wave conditions support the
development of very strong rip currents. These rip currents
will be life threatening to anyone who enters the surf.

Precautionary/preparedness actions...

No one should enter the surf due to life threatening rip
currents.